sensor_id;sensor_type;location;lat;lon;timestamp;P1;durP1;ratioP1;P2;durP2;ratioP2
40931;SDS011;36257;46.052;12.540;2023-03-01T00:01:24;11.63;;;10.43;;
40931;SDS011;36257;46.052;12.540;2023-03-01T00:03:51;11.57;;;10.33;;
40931;SDS011;36257;46.052;12.540;2023-03-01T00:06:18;13.60;;;10.80;;
40931;SDS011;36257;46.052;12.540;2023-03-01T00:08:44;13.47;;;12.00;;
40931;SDS011;36257;46.052;12.540;2023-03-01T00:11:18;12.90;;;9.83;;
40931;SDS011;36257;46.052;12.540;2023-03-01T00:13:52;11.10;;;10.00;;
40931;SDS011;36257;46.052;12.540;2023-03-01T00:16:21;10.80;;;9.53;;
40931;SDS011;36257;46.052;12.540;2023-03-01T00:18:51;11.17;;;9.97;;
40931;SDS011;36257;46.052;12.540;2023-03-01T00:21:19;10.53;;;9.43;;
40931;SDS011;36257;46.052;12.540;2023-03-01T00:23:46;10.70;;;9.60;;
40931;SDS011;36257;46.052;12.540;2023-03-01T00:26:13;13.38;;;9.45;;
40931;SDS011;36257;46.052;12.540;2023-03-01T00:28:40;10.80;;;9.70;;
40931;SDS011;36257;46.052;12.540;2023-03-01T00:31:07;11.90;;;9.10;;
40931;SDS011;36257;46.052;12.540;2023-03-01T00:33:35;9.80;;;8.80;;
40931;SDS011;36257;46.052;12.540;2023-03-01T00:36:01;10.47;;;9.47;;
40931;SDS011;36257;46.052;12.540;2023-03-01T00:38:27;11.67;;;9.27;;
40931;SDS011;36257;46.052;12.540;2023-03-01T00:40:52;10.77;;;9.67;;
40931;SDS011;36257;46.052;12.540;2023-03-01T00:43:18;11.30;;;10.10;;
40931;SDS011;36257;46.052;12.540;2023-03-01T00:45:44;10.77;;;9.67;;
40931;SDS011;36257;46.052;12.540;2023-03-01T00:48:10;9.93;;;8.93;;
40931;SDS011;36257;46.052;12.540;2023-03-01T00:50:35;9.43;;;8.23;;
40931;SDS011;36257;46.052;12.540;2023-03-01T00:53:01;13.27;;;9.27;;
40931;SDS011;36257;46.052;12.540;2023-03-01T00:55:27;10.57;;;9.20;;
40931;SDS011;36257;46.052;12.540;2023-03-01T00:57:53;11.03;;;8.90;;
40931;SDS011;36257;46.052;12.540;2023-03-01T01:00:18;10.30;;;9.30;;
40931;SDS011;36257;46.052;12.540;2023-03-01T01:02:45;9.60;;;8.60;;
40931;SDS011;36257;46.052;12.540;2023-03-01T01:05:11;9.40;;;8.50;;
40931;SDS011;36257;46.052;12.540;2023-03-01T01:07:38;9.10;;;8.30;;
40931;SDS011;36257;46.052;12.540;2023-03-01T01:10:03;10.13;;;9.10;;
40931;SDS011;36257;46.052;12.540;2023-03-01T01:12:30;8.97;;;8.13;;
40931;SDS011;36257;46.052;12.540;2023-03-01T01:14:55;9.73;;;8.73;;
40931;SDS011;36257;46.052;12.540;2023-03-01T01:17:21;10.07;;;9.03;;
40931;SDS011;36257;46.052;12.540;2023-03-01T01:19:47;11.77;;;9.13;;
40931;SDS011;36257;46.052;12.540;2023-03-01T01:22:12;11.20;;;9.50;;
40931;SDS011;36257;46.052;12.540;2023-03-01T01:24:38;12.77;;;10.30;;
40931;SDS011;36257;46.052;12.540;2023-03-01T01:27:04;33.67;;;17.57;;
40931;SDS011;36257;46.052;12.540;2023-03-01T01:29:30;33.53;;;19.57;;
40931;SDS011;36257;46.052;12.540;2023-03-01T01:31:56;18.33;;;10.90;;
40931;SDS011;36257;46.052;12.540;2023-03-01T01:34:22;12.80;;;11.20;;
40931;SDS011;36257;46.052;12.540;2023-03-01T01:36:51;16.40;;;11.57;;
40931;SDS011;36257;46.052;12.540;2023-03-01T01:39:19;12.90;;;9.87;;
40931;SDS011;36257;46.052;12.540;2023-03-01T01:41:45;10.83;;;9.73;;
40931;SDS011;36257;46.052;12.540;2023-03-01T01:44:18;10.00;;;8.93;;
40931;SDS011;36257;46.052;12.540;2023-03-01T01:51:56;13.90;;;11.83;;
40931;SDS011;36257;46.052;12.540;2023-03-01T01:54:31;15.20;;;13.63;;
40931;SDS011;36257;46.052;12.540;2023-03-01T01:57:05;15.65;;;13.65;;
40931;SDS011;36257;46.052;12.540;2023-03-01T01:59:35;13.87;;;11.60;;
40931;SDS011;36257;46.052;12.540;2023-03-01T02:02:02;13.63;;;12.15;;
40931;SDS011;36257;46.052;12.540;2023-03-01T02:04:29;13.90;;;10.87;;
40931;SDS011;36257;46.052;12.540;2023-03-01T02:07:16;9.17;;;8.27;;
40931;SDS011;36257;46.052;12.540;2023-03-01T02:09:46;11.90;;;10.73;;
40931;SDS011;36257;46.052;12.540;2023-03-01T02:12:16;11.17;;;8.67;;
40931;SDS011;36257;46.052;12.540;2023-03-01T02:14:44;10.47;;;8.97;;
40931;SDS011;36257;46.052;12.540;2023-03-01T02:17:10;10.73;;;9.20;;
40931;SDS011;36257;46.052;12.540;2023-03-01T02:22:06;9.87;;;8.93;;
40931;SDS011;36257;46.052;12.540;2023-03-01T02:24:45;9.70;;;8.73;;
40931;SDS011;36257;46.052;12.540;2023-03-01T02:27:13;9.70;;;8.80;;
40931;SDS011;36257;46.052;12.540;2023-03-01T02:29:41;9.23;;;8.43;;
40931;SDS011;36257;46.052;12.540;2023-03-01T02:34:38;10.33;;;9.50;;
40931;SDS011;36257;46.052;12.540;2023-03-01T02:37:09;9.33;;;8.43;;
40931;SDS011;36257;46.052;12.540;2023-03-01T02:39:45;11.03;;;9.60;;
40931;SDS011;36257;46.052;12.540;2023-03-01T02:42:14;11.83;;;9.70;;
40931;SDS011;36257;46.052;12.540;2023-03-01T02:44:45;9.93;;;9.03;;
40931;SDS011;36257;46.052;12.540;2023-03-01T02:47:10;11.07;;;9.10;;
40931;SDS011;36257;46.052;12.540;2023-03-01T02:49:36;11.67;;;9.27;;
40931;SDS011;36257;46.052;12.540;2023-03-01T02:55:08;11.33;;;10.17;;
40931;SDS011;36257;46.052;12.540;2023-03-01T02:57:38;10.70;;;9.63;;
40931;SDS011;36257;46.052;12.540;2023-03-01T03:00:15;12.83;;;8.40;;
40931;SDS011;36257;46.052;12.540;2023-03-01T03:02:45;10.87;;;8.40;;
40931;SDS011;36257;46.052;12.540;2023-03-01T03:05:16;9.17;;;8.23;;
40931;SDS011;36257;46.052;12.540;2023-03-01T03:07:45;9.87;;;8.80;;
40931;SDS011;36257;46.052;12.540;2023-03-01T03:10:13;11.47;;;9.17;;
40931;SDS011;36257;46.052;12.540;2023-03-01T03:12:50;9.43;;;8.57;;
40931;SDS011;36257;46.052;12.540;2023-03-01T03:15:27;9.50;;;8.23;;
40931;SDS011;36257;46.052;12.540;2023-03-01T03:17:54;10.43;;;9.33;;
40931;SDS011;36257;46.052;12.540;2023-03-01T03:20:22;9.43;;;8.52;;
40931;SDS011;36257;46.052;12.540;2023-03-01T03:22:50;10.07;;;9.07;;
40931;SDS011;36257;46.052;12.540;2023-03-01T03:25:18;9.60;;;8.57;;
40931;SDS011;36257;46.052;12.540;2023-03-01T03:27:45;11.13;;;10.03;;
40931;SDS011;36257;46.052;12.540;2023-03-01T03:30:13;9.07;;;7.90;;
40931;SDS011;36257;46.052;12.540;2023-03-01T03:32:41;8.90;;;8.10;;
40931;SDS011;36257;46.052;12.540;2023-03-01T03:35:17;9.67;;;8.67;;
40931;SDS011;36257;46.052;12.540;2023-03-01T03:40:29;9.67;;;8.67;;
40931;SDS011;36257;46.052;12.540;2023-03-01T03:45:32;13.07;;;9.25;;
40931;SDS011;36257;46.052;12.540;2023-03-01T03:47:58;13.23;;;10.43;;
40931;SDS011;36257;46.052;12.540;2023-03-01T03:50:25;13.70;;;10.47;;
40931;SDS011;36257;46.052;12.540;2023-03-01T03:52:51;13.63;;;11.20;;
40931;SDS011;36257;46.052;12.540;2023-03-01T03:55:16;15.00;;;11.97;;
40931;SDS011;36257;46.052;12.540;2023-03-01T03:57:44;11.48;;;10.32;;
40931;SDS011;36257;46.052;12.540;2023-03-01T04:00:20;10.67;;;9.67;;
40931;SDS011;36257;46.052;12.540;2023-03-01T04:02:48;10.10;;;9.13;;
40931;SDS011;36257;46.052;12.540;2023-03-01T04:05:16;13.20;;;10.45;;
40931;SDS011;36257;46.052;12.540;2023-03-01T04:07:43;11.07;;;9.93;;
40931;SDS011;36257;46.052;12.540;2023-03-01T04:10:10;11.67;;;10.47;;
40931;SDS011;36257;46.052;12.540;2023-03-01T04:12:40;13.43;;;10.37;;
40931;SDS011;36257;46.052;12.540;2023-03-01T04:17:40;12.47;;;10.90;;
40931;SDS011;36257;46.052;12.540;2023-03-01T04:20:11;15.60;;;10.70;;
40931;SDS011;36257;46.052;12.540;2023-03-01T04:22:42;12.77;;;11.47;;
40931;SDS011;36257;46.052;12.540;2023-03-01T04:25:12;17.57;;;12.17;;
40931;SDS011;36257;46.052;12.540;2023-03-01T04:27:39;13.25;;;11.93;;
40931;SDS011;36257;46.052;12.540;2023-03-01T04:30:06;13.93;;;11.57;;
40931;SDS011;36257;46.052;12.540;2023-03-01T04:32:32;11.70;;;10.32;;
40931;SDS011;36257;46.052;12.540;2023-03-01T04:34:58;11.83;;;10.63;;
40931;SDS011;36257;46.052;12.540;2023-03-01T04:37:24;13.67;;;11.20;;
40931;SDS011;36257;46.052;12.540;2023-03-01T04:39:50;11.47;;;10.33;;
40931;SDS011;36257;46.052;12.540;2023-03-01T04:42:16;12.27;;;11.07;;
40931;SDS011;36257;46.052;12.540;2023-03-01T04:44:43;13.20;;;11.33;;
40931;SDS011;36257;46.052;12.540;2023-03-01T04:47:09;10.87;;;9.77;;
40931;SDS011;36257;46.052;12.540;2023-03-01T04:49:35;15.03;;;10.70;;
40931;SDS011;36257;46.052;12.540;2023-03-01T04:52:01;12.67;;;10.23;;
40931;SDS011;36257;46.052;12.540;2023-03-01T04:54:27;12.20;;;10.90;;
40931;SDS011;36257;46.052;12.540;2023-03-01T04:56:54;14.85;;;11.43;;
40931;SDS011;36257;46.052;12.540;2023-03-01T04:59:20;12.53;;;11.23;;
40931;SDS011;36257;46.052;12.540;2023-03-01T05:01:49;16.17;;;12.33;;
40931;SDS011;36257;46.052;12.540;2023-03-01T05:04:16;11.73;;;10.40;;
40931;SDS011;36257;46.052;12.540;2023-03-01T05:06:41;13.83;;;11.30;;
40931;SDS011;36257;46.052;12.540;2023-03-01T05:09:07;13.37;;;11.37;;
40931;SDS011;36257;46.052;12.540;2023-03-01T05:11:33;11.83;;;9.50;;
40931;SDS011;36257;46.052;12.540;2023-03-01T05:14:07;10.93;;;9.55;;
40931;SDS011;36257;46.052;12.540;2023-03-01T05:16:33;10.90;;;9.83;;
40931;SDS011;36257;46.052;12.540;2023-03-01T05:19:01;9.95;;;8.93;;
40931;SDS011;36257;46.052;12.540;2023-03-01T05:21:36;10.40;;;9.40;;
40931;SDS011;36257;46.052;12.540;2023-03-01T05:24:23;8.70;;;7.90;;
40931;SDS011;36257;46.052;12.540;2023-03-01T05:26:49;9.97;;;8.97;;
40931;SDS011;36257;46.052;12.540;2023-03-01T05:29:17;11.10;;;9.98;;
40931;SDS011;36257;46.052;12.540;2023-03-01T05:31:44;10.48;;;9.32;;
40931;SDS011;36257;46.052;12.540;2023-03-01T05:34:09;10.57;;;8.60;;
40931;SDS011;36257;46.052;12.540;2023-03-01T05:36:37;10.60;;;9.60;;
40931;SDS011;36257;46.052;12.540;2023-03-01T05:39:03;10.70;;;9.70;;
40931;SDS011;36257;46.052;12.540;2023-03-01T05:41:31;12.43;;;11.17;;
40931;SDS011;36257;46.052;12.540;2023-03-01T05:43:56;18.00;;;11.87;;
40931;SDS011;36257;46.052;12.540;2023-03-01T05:46:22;13.90;;;11.93;;
40931;SDS011;36257;46.052;12.540;2023-03-01T05:48:49;13.50;;;10.20;;
40931;SDS011;36257;46.052;12.540;2023-03-01T05:51:15;13.70;;;11.30;;
40931;SDS011;36257;46.052;12.540;2023-03-01T05:53:40;11.20;;;9.30;;
40931;SDS011;36257;46.052;12.540;2023-03-01T05:56:06;11.53;;;9.80;;
40931;SDS011;36257;46.052;12.540;2023-03-01T05:58:32;13.00;;;10.47;;
40931;SDS011;36257;46.052;12.540;2023-03-01T06:01:00;11.90;;;9.50;;
40931;SDS011;36257;46.052;12.540;2023-03-01T06:03:26;11.60;;;10.40;;
40931;SDS011;36257;46.052;12.540;2023-03-01T06:05:56;19.30;;;13.00;;
40931;SDS011;36257;46.052;12.540;2023-03-01T06:08:22;16.97;;;13.00;;
40931;SDS011;36257;46.052;12.540;2023-03-01T06:10:49;12.67;;;10.83;;
40931;SDS011;36257;46.052;12.540;2023-03-01T06:13:14;12.03;;;10.93;;
40931;SDS011;36257;46.052;12.540;2023-03-01T06:15:40;11.53;;;10.43;;
40931;SDS011;36257;46.052;12.540;2023-03-01T06:18:06;9.73;;;8.73;;
40931;SDS011;36257;46.052;12.540;2023-03-01T06:20:31;9.20;;;8.30;;
40931;SDS011;36257;46.052;12.540;2023-03-01T06:22:57;10.13;;;9.13;;
40931;SDS011;36257;46.052;12.540;2023-03-01T06:25:23;13.23;;;9.57;;
40931;SDS011;36257;46.052;12.540;2023-03-01T06:27:50;12.30;;;8.03;;
40931;SDS011;36257;46.052;12.540;2023-03-01T06:30:18;8.52;;;7.72;;
40931;SDS011;36257;46.052;12.540;2023-03-01T06:32:45;7.60;;;7.00;;
40931;SDS011;36257;46.052;12.540;2023-03-01T06:35:11;6.83;;;6.00;;
40931;SDS011;36257;46.052;12.540;2023-03-01T06:37:38;8.27;;;6.85;;
40931;SDS011;36257;46.052;12.540;2023-03-01T06:40:05;10.90;;;7.17;;
40931;SDS011;36257;46.052;12.540;2023-03-01T06:42:33;7.00;;;6.40;;
40931;SDS011;36257;46.052;12.540;2023-03-01T06:45:12;7.03;;;6.43;;
40931;SDS011;36257;46.052;12.540;2023-03-01T06:47:37;8.17;;;6.97;;
40931;SDS011;36257;46.052;12.540;2023-03-01T06:50:03;7.67;;;6.97;;
40931;SDS011;36257;46.052;12.540;2023-03-01T06:52:29;6.37;;;5.83;;
40931;SDS011;36257;46.052;12.540;2023-03-01T06:54:55;6.57;;;6.07;;
40931;SDS011;36257;46.052;12.540;2023-03-01T06:57:20;6.40;;;5.80;;
40931;SDS011;36257;46.052;12.540;2023-03-01T06:59:46;6.37;;;5.87;;
40931;SDS011;36257;46.052;12.540;2023-03-01T07:02:13;8.97;;;7.60;;
40931;SDS011;36257;46.052;12.540;2023-03-01T07:04:40;7.88;;;6.43;;
40931;SDS011;36257;46.052;12.540;2023-03-01T07:07:06;7.37;;;6.77;;
40931;SDS011;36257;46.052;12.540;2023-03-01T07:09:31;9.53;;;7.77;;
40931;SDS011;36257;46.052;12.540;2023-03-01T07:11:57;15.73;;;10.20;;
40931;SDS011;36257;46.052;12.540;2023-03-01T07:14:23;12.73;;;9.73;;
40931;SDS011;36257;46.052;12.540;2023-03-01T07:16:50;12.32;;;10.70;;
40931;SDS011;36257;46.052;12.540;2023-03-01T07:19:16;12.93;;;10.47;;
40931;SDS011;36257;46.052;12.540;2023-03-01T07:21:42;13.00;;;9.80;;
40931;SDS011;36257;46.052;12.540;2023-03-01T07:24:08;10.70;;;8.80;;
40931;SDS011;36257;46.052;12.540;2023-03-01T07:26:34;10.93;;;9.07;;
40931;SDS011;36257;46.052;12.540;2023-03-01T07:29:00;12.37;;;8.73;;
40931;SDS011;36257;46.052;12.540;2023-03-01T07:31:27;9.00;;;7.68;;
40931;SDS011;36257;46.052;12.540;2023-03-01T07:33:53;9.50;;;7.97;;
40931;SDS011;36257;46.052;12.540;2023-03-01T07:36:19;9.00;;;7.23;;
40931;SDS011;36257;46.052;12.540;2023-03-01T07:38:45;8.43;;;6.67;;
40931;SDS011;36257;46.052;12.540;2023-03-01T07:41:11;7.37;;;6.63;;
40931;SDS011;36257;46.052;12.540;2023-03-01T07:43:37;7.23;;;6.60;;
40931;SDS011;36257;46.052;12.540;2023-03-01T07:46:03;8.20;;;7.33;;
40931;SDS011;36257;46.052;12.540;2023-03-01T07:48:29;6.28;;;5.68;;
40931;SDS011;36257;46.052;12.540;2023-03-01T07:50:59;7.33;;;6.63;;
40931;SDS011;36257;46.052;12.540;2023-03-01T07:53:26;8.13;;;7.33;;
40931;SDS011;36257;46.052;12.540;2023-03-01T07:56:05;8.70;;;7.83;;
40931;SDS011;36257;46.052;12.540;2023-03-01T07:58:37;8.47;;;7.50;;
40931;SDS011;36257;46.052;12.540;2023-03-01T08:01:04;7.47;;;6.53;;
40931;SDS011;36257;46.052;12.540;2023-03-01T08:03:31;9.05;;;7.10;;
40931;SDS011;36257;46.052;12.540;2023-03-01T08:06:01;12.97;;;8.50;;
40931;SDS011;36257;46.052;12.540;2023-03-01T08:08:28;7.10;;;5.77;;
40931;SDS011;36257;46.052;12.540;2023-03-01T08:10:57;7.20;;;5.17;;
40931;SDS011;36257;46.052;12.540;2023-03-01T08:13:23;5.10;;;4.30;;
40931;SDS011;36257;46.052;12.540;2023-03-01T08:15:49;5.05;;;4.50;;
40931;SDS011;36257;46.052;12.540;2023-03-01T08:18:15;5.38;;;4.65;;
40931;SDS011;36257;46.052;12.540;2023-03-01T08:20:42;8.50;;;4.75;;
40931;SDS011;36257;46.052;12.540;2023-03-01T08:23:07;5.63;;;4.38;;
40931;SDS011;36257;46.052;12.540;2023-03-01T08:25:33;7.28;;;4.15;;
40931;SDS011;36257;46.052;12.540;2023-03-01T08:27:59;8.98;;;5.50;;
40931;SDS011;36257;46.052;12.540;2023-03-01T08:30:25;6.78;;;4.35;;
40931;SDS011;36257;46.052;12.540;2023-03-01T08:32:51;7.28;;;4.65;;
40931;SDS011;36257;46.052;12.540;2023-03-01T08:35:17;5.45;;;3.92;;
40931;SDS011;36257;46.052;12.540;2023-03-01T08:37:43;4.20;;;3.80;;
40931;SDS011;36257;46.052;12.540;2023-03-01T08:40:09;5.22;;;4.43;;
40931;SDS011;36257;46.052;12.540;2023-03-01T08:42:40;7.95;;;3.88;;
40931;SDS011;36257;46.052;12.540;2023-03-01T08:45:08;5.10;;;4.60;;
40931;SDS011;36257;46.052;12.540;2023-03-01T08:47:34;5.43;;;3.83;;
40931;SDS011;36257;46.052;12.540;2023-03-01T08:50:00;6.32;;;4.35;;
40931;SDS011;36257;46.052;12.540;2023-03-01T08:52:25;5.70;;;4.35;;
40931;SDS011;36257;46.052;12.540;2023-03-01T08:54:51;8.70;;;4.22;;
40931;SDS011;36257;46.052;12.540;2023-03-01T08:57:17;10.02;;;3.97;;
40931;SDS011;36257;46.052;12.540;2023-03-01T08:59:43;8.05;;;4.22;;
40931;SDS011;36257;46.052;12.540;2023-03-01T09:02:11;5.90;;;4.28;;
40931;SDS011;36257;46.052;12.540;2023-03-01T09:04:39;5.80;;;3.83;;
40931;SDS011;36257;46.052;12.540;2023-03-01T09:07:05;7.75;;;3.90;;
40931;SDS011;36257;46.052;12.540;2023-03-01T09:09:31;8.52;;;4.20;;
40931;SDS011;36257;46.052;12.540;2023-03-01T09:11:56;7.75;;;3.75;;
40931;SDS011;36257;46.052;12.540;2023-03-01T09:14:22;5.95;;;2.95;;
40931;SDS011;36257;46.052;12.540;2023-03-01T09:16:48;7.63;;;2.97;;
40931;SDS011;36257;46.052;12.540;2023-03-01T09:19:14;7.90;;;3.05;;
40931;SDS011;36257;46.052;12.540;2023-03-01T09:21:40;9.90;;;2.60;;
40931;SDS011;36257;46.052;12.540;2023-03-01T09:24:06;13.35;;;3.33;;
40931;SDS011;36257;46.052;12.540;2023-03-01T09:26:38;7.38;;;2.53;;
40931;SDS011;36257;46.052;12.540;2023-03-01T09:29:03;13.23;;;2.42;;
40931;SDS011;36257;46.052;12.540;2023-03-01T09:31:29;6.43;;;2.30;;
40931;SDS011;36257;46.052;12.540;2023-03-01T09:33:55;15.90;;;3.30;;
40931;SDS011;36257;46.052;12.540;2023-03-01T09:36:21;10.43;;;2.80;;
40931;SDS011;36257;46.052;12.540;2023-03-01T09:43:44;15.43;;;2.85;;
40931;SDS011;36257;46.052;12.540;2023-03-01T09:46:14;29.20;;;3.63;;
40931;SDS011;36257;46.052;12.540;2023-03-01T09:48:56;9.15;;;3.33;;
40931;SDS011;36257;46.052;12.540;2023-03-01T09:51:29;17.02;;;3.20;;
40931;SDS011;36257;46.052;12.540;2023-03-01T09:53:57;18.45;;;2.60;;
40931;SDS011;36257;46.052;12.540;2023-03-01T09:56:34;7.97;;;1.97;;
40931;SDS011;36257;46.052;12.540;2023-03-01T09:59:17;7.30;;;2.60;;
40931;SDS011;36257;46.052;12.540;2023-03-01T10:01:59;11.98;;;3.42;;
40931;SDS011;36257;46.052;12.540;2023-03-01T10:04:50;14.82;;;3.30;;
40931;SDS011;36257;46.052;12.540;2023-03-01T10:10:06;12.45;;;2.83;;
40931;SDS011;36257;46.052;12.540;2023-03-01T10:12:37;12.57;;;2.85;;
40931;SDS011;36257;46.052;12.540;2023-03-01T10:15:19;11.65;;;3.13;;
40931;SDS011;36257;46.052;12.540;2023-03-01T10:17:57;11.73;;;2.60;;
40931;SDS011;36257;46.052;12.540;2023-03-01T10:20:42;13.60;;;3.03;;
40931;SDS011;36257;46.052;12.540;2023-03-01T10:23:18;11.65;;;2.90;;
40931;SDS011;36257;46.052;12.540;2023-03-01T10:25:47;17.10;;;2.67;;
40931;SDS011;36257;46.052;12.540;2023-03-01T10:28:17;10.00;;;2.85;;
40931;SDS011;36257;46.052;12.540;2023-03-01T10:30:47;12.73;;;2.55;;
40931;SDS011;36257;46.052;12.540;2023-03-01T10:33:23;10.07;;;2.50;;
40931;SDS011;36257;46.052;12.540;2023-03-01T10:35:50;14.73;;;2.53;;
40931;SDS011;36257;46.052;12.540;2023-03-01T10:38:16;10.13;;;2.83;;
40931;SDS011;36257;46.052;12.540;2023-03-01T10:41:16;13.35;;;4.72;;
40931;SDS011;36257;46.052;12.540;2023-03-01T10:46:21;11.48;;;4.50;;
40931;SDS011;36257;46.052;12.540;2023-03-01T10:51:40;13.30;;;5.35;;
40931;SDS011;36257;46.052;12.540;2023-03-01T10:54:15;11.85;;;5.10;;
40931;SDS011;36257;46.052;12.540;2023-03-01T10:56:47;9.52;;;5.20;;
40931;SDS011;36257;46.052;12.540;2023-03-01T10:59:22;14.15;;;4.85;;
40931;SDS011;36257;46.052;12.540;2023-03-01T11:02:01;10.38;;;5.35;;
40931;SDS011;36257;46.052;12.540;2023-03-01T11:05:02;8.48;;;6.13;;
40931;SDS011;36257;46.052;12.540;2023-03-01T11:07:50;8.82;;;5.72;;
40931;SDS011;36257;46.052;12.540;2023-03-01T11:10:28;11.48;;;6.63;;
40931;SDS011;36257;46.052;12.540;2023-03-01T11:13:06;10.32;;;6.45;;
40931;SDS011;36257;46.052;12.540;2023-03-01T11:15:40;15.00;;;7.00;;
40931;SDS011;36257;46.052;12.540;2023-03-01T11:18:17;9.48;;;5.80;;
40931;SDS011;36257;46.052;12.540;2023-03-01T11:20:44;13.05;;;7.72;;
40931;SDS011;36257;46.052;12.540;2023-03-01T11:23:11;9.32;;;6.75;;
40931;SDS011;36257;46.052;12.540;2023-03-01T11:25:55;11.13;;;6.88;;
40931;SDS011;36257;46.052;12.540;2023-03-01T11:28:23;12.20;;;6.68;;
40931;SDS011;36257;46.052;12.540;2023-03-01T11:31:05;11.30;;;6.75;;
40931;SDS011;36257;46.052;12.540;2023-03-01T11:41:42;11.15;;;7.00;;
40931;SDS011;36257;46.052;12.540;2023-03-01T11:44:14;15.20;;;7.22;;
40931;SDS011;36257;46.052;12.540;2023-03-01T11:54:30;14.65;;;7.20;;
40931;SDS011;36257;46.052;12.540;2023-03-01T11:57:36;15.90;;;6.53;;
40931;SDS011;36257;46.052;12.540;2023-03-01T12:02:51;10.38;;;6.05;;
40931;SDS011;36257;46.052;12.540;2023-03-01T12:08:31;13.75;;;5.70;;
40931;SDS011;36257;46.052;12.540;2023-03-01T12:11:09;14.98;;;6.10;;
40931;SDS011;36257;46.052;12.540;2023-03-01T12:39:06;13.95;;;6.25;;
40931;SDS011;36257;46.052;12.540;2023-03-01T12:41:47;11.40;;;6.60;;
40931;SDS011;36257;46.052;12.540;2023-03-01T12:47:26;10.63;;;5.65;;
40931;SDS011;36257;46.052;12.540;2023-03-01T12:50:10;11.05;;;6.47;;
40931;SDS011;36257;46.052;12.540;2023-03-01T12:52:57;13.43;;;6.28;;
40931;SDS011;36257;46.052;12.540;2023-03-01T12:55:33;10.68;;;6.05;;
40931;SDS011;36257;46.052;12.540;2023-03-01T12:58:03;7.90;;;5.88;;
40931;SDS011;36257;46.052;12.540;2023-03-01T13:03:30;9.85;;;5.45;;
40931;SDS011;36257;46.052;12.540;2023-03-01T13:11:46;15.43;;;6.47;;
40931;SDS011;36257;46.052;12.540;2023-03-01T13:16:47;17.52;;;6.40;;
40931;SDS011;36257;46.052;12.540;2023-03-01T13:19:15;15.43;;;6.63;;
40931;SDS011;36257;46.052;12.540;2023-03-01T13:21:43;8.48;;;5.25;;
40931;SDS011;36257;46.052;12.540;2023-03-01T13:29:48;14.35;;;6.25;;
40931;SDS011;36257;46.052;12.540;2023-03-01T13:34:45;10.23;;;5.43;;
40931;SDS011;36257;46.052;12.540;2023-03-01T13:37:28;12.63;;;5.80;;
40931;SDS011;36257;46.052;12.540;2023-03-01T13:39:57;9.02;;;5.85;;
40931;SDS011;36257;46.052;12.540;2023-03-01T13:42:34;12.82;;;5.70;;
40931;SDS011;36257;46.052;12.540;2023-03-01T13:47:58;14.07;;;5.88;;
40931;SDS011;36257;46.052;12.540;2023-03-01T13:50:28;17.88;;;6.15;;
40931;SDS011;36257;46.052;12.540;2023-03-01T13:52:57;16.30;;;7.03;;
40931;SDS011;36257;46.052;12.540;2023-03-01T13:55:27;9.30;;;4.78;;
40931;SDS011;36257;46.052;12.540;2023-03-01T13:58:00;11.18;;;5.35;;
40931;SDS011;36257;46.052;12.540;2023-03-01T14:00:31;14.70;;;4.63;;
40931;SDS011;36257;46.052;12.540;2023-03-01T14:05:38;18.63;;;5.47;;
40931;SDS011;36257;46.052;12.540;2023-03-01T14:08:05;10.70;;;4.50;;
40931;SDS011;36257;46.052;12.540;2023-03-01T14:10:54;12.48;;;4.13;;
40931;SDS011;36257;46.052;12.540;2023-03-01T14:21:36;12.88;;;3.92;;
40931;SDS011;36257;46.052;12.540;2023-03-01T14:24:01;7.45;;;3.58;;
40931;SDS011;36257;46.052;12.540;2023-03-01T14:26:28;10.53;;;4.07;;
40931;SDS011;36257;46.052;12.540;2023-03-01T14:33:56;11.68;;;4.00;;
40931;SDS011;36257;46.052;12.540;2023-03-01T14:36:26;11.15;;;3.67;;
40931;SDS011;36257;46.052;12.540;2023-03-01T14:38:53;15.70;;;3.90;;
40931;SDS011;36257;46.052;12.540;2023-03-01T14:41:23;13.45;;;3.22;;
40931;SDS011;36257;46.052;12.540;2023-03-01T14:43:51;8.52;;;3.78;;
40931;SDS011;36257;46.052;12.540;2023-03-01T14:46:24;11.00;;;3.47;;
40931;SDS011;36257;46.052;12.540;2023-03-01T14:48:58;9.45;;;3.17;;
40931;SDS011;36257;46.052;12.540;2023-03-01T14:51:28;10.65;;;3.03;;
40931;SDS011;36257;46.052;12.540;2023-03-01T14:53:54;10.57;;;3.90;;
40931;SDS011;36257;46.052;12.540;2023-03-01T14:56:20;10.73;;;4.00;;
40931;SDS011;36257;46.052;12.540;2023-03-01T14:58:46;8.15;;;3.30;;
40931;SDS011;36257;46.052;12.540;2023-03-01T15:01:17;12.75;;;3.58;;
40931;SDS011;36257;46.052;12.540;2023-03-01T15:03:47;14.40;;;3.15;;
40931;SDS011;36257;46.052;12.540;2023-03-01T15:06:15;9.75;;;2.90;;
40931;SDS011;36257;46.052;12.540;2023-03-01T15:08:44;14.88;;;3.80;;
40931;SDS011;36257;46.052;12.540;2023-03-01T15:11:27;18.08;;;3.83;;
40931;SDS011;36257;46.052;12.540;2023-03-01T15:13:57;11.13;;;3.45;;
40931;SDS011;36257;46.052;12.540;2023-03-01T15:16:24;10.20;;;3.80;;
40931;SDS011;36257;46.052;12.540;2023-03-01T15:18:59;8.50;;;3.45;;
40931;SDS011;36257;46.052;12.540;2023-03-01T15:21:31;16.60;;;5.10;;
40931;SDS011;36257;46.052;12.540;2023-03-01T15:24:02;20.80;;;6.97;;
40931;SDS011;36257;46.052;12.540;2023-03-01T15:29:15;18.05;;;5.15;;
40931;SDS011;36257;46.052;12.540;2023-03-01T15:31:43;17.30;;;5.40;;
40931;SDS011;36257;46.052;12.540;2023-03-01T15:34:25;13.05;;;4.95;;
40931;SDS011;36257;46.052;12.540;2023-03-01T15:36:52;15.23;;;5.15;;
40931;SDS011;36257;46.052;12.540;2023-03-01T15:42:05;15.65;;;4.15;;
40931;SDS011;36257;46.052;12.540;2023-03-01T15:44:36;12.30;;;3.90;;
40931;SDS011;36257;46.052;12.540;2023-03-01T15:47:06;11.23;;;4.55;;
40931;SDS011;36257;46.052;12.540;2023-03-01T15:49:51;12.93;;;4.68;;
40931;SDS011;36257;46.052;12.540;2023-03-01T15:52:23;8.73;;;4.43;;
40931;SDS011;36257;46.052;12.540;2023-03-01T15:55:03;18.58;;;4.65;;
40931;SDS011;36257;46.052;12.540;2023-03-01T15:58:00;8.73;;;3.63;;
40931;SDS011;36257;46.052;12.540;2023-03-01T16:00:38;11.25;;;4.05;;
40931;SDS011;36257;46.052;12.540;2023-03-01T16:03:04;15.02;;;5.45;;
40931;SDS011;36257;46.052;12.540;2023-03-01T16:05:32;14.15;;;4.68;;
40931;SDS011;36257;46.052;12.540;2023-03-01T16:07:59;27.25;;;9.40;;
40931;SDS011;36257;46.052;12.540;2023-03-01T16:10:25;25.23;;;14.00;;
40931;SDS011;36257;46.052;12.540;2023-03-01T16:12:51;19.08;;;4.93;;
40931;SDS011;36257;46.052;12.540;2023-03-01T16:15:21;13.15;;;4.30;;
40931;SDS011;36257;46.052;12.540;2023-03-01T16:17:49;12.57;;;4.70;;
40931;SDS011;36257;46.052;12.540;2023-03-01T16:20:15;13.00;;;4.55;;
40931;SDS011;36257;46.052;12.540;2023-03-01T16:22:44;16.17;;;4.72;;
40931;SDS011;36257;46.052;12.540;2023-03-01T16:25:11;11.25;;;4.93;;
40931;SDS011;36257;46.052;12.540;2023-03-01T16:27:41;8.82;;;3.92;;
40931;SDS011;36257;46.052;12.540;2023-03-01T16:30:09;15.32;;;3.83;;
40931;SDS011;36257;46.052;12.540;2023-03-01T16:32:39;10.88;;;4.90;;
40931;SDS011;36257;46.052;12.540;2023-03-01T16:35:09;15.35;;;5.72;;
40931;SDS011;36257;46.052;12.540;2023-03-01T16:37:36;13.73;;;5.78;;
40931;SDS011;36257;46.052;12.540;2023-03-01T16:40:03;7.43;;;5.78;;
40931;SDS011;36257;46.052;12.540;2023-03-01T16:42:36;10.85;;;5.78;;
40931;SDS011;36257;46.052;12.540;2023-03-01T16:45:03;12.25;;;5.53;;